Time;durP1;ratioP1;P1;durP2;ratioP2;P2;SDS_P1;SDS_P2;PMS_P1;PMS_P2;Temp;Humidity;BMP_temperature;BMP_pressure;BME280_temperature;BME280_humidity;BME280_pressure;Samples;Min_cycle;Max_cycle;Signal;HPM_P1;HPM_P2
2022/10/25 00:00:42;;;;;;;0.10;0.10;;;12.30;99.90;;;;;;5068673;28;20189;-80
2022/10/25 00:03:09;;;;;;;0.10;0.10;;;12.30;99.90;;;;;;5066247;28;20650;-81
2022/10/25 00:05:38;;;;;;;0.10;0.10;;;12.30;99.90;;;;;;5075814;28;20220;-81
2022/10/25 00:08:04;;;;;;;0.10;0.10;;;12.30;99.90;;;;;;5068004;28;20280;-81
2022/10/25 00:10:29;;;;;;;0.10;0.10;;;12.30;99.90;;;;;;5067417;28;20911;-80
2022/10/25 00:12:56;;;;;;;0.10;0.10;;;12.40;99.90;;;;;;5067737;28;20311;-80
2022/10/25 00:15:21;;;;;;;0.00;0.00;;;12.40;99.90;;;;;;5066837;28;20186;-80
2022/10/25 00:17:47;;;;;;;0.10;0.10;;;12.40;99.90;;;;;;5066911;28;20544;-80
2022/10/25 00:20:12;;;;;;;0.10;0.10;;;12.50;99.90;;;;;;5068594;28;20189;-80
2022/10/25 00:22:38;;;;;;;0.10;0.10;;;12.50;99.90;;;;;;5068670;28;20296;-80
2022/10/25 00:25:06;;;;;;;0.10;0.10;;;12.60;99.90;;;;;;5068930;28;20673;-80
2022/10/25 00:27:31;;;;;;;0.00;0.00;;;12.60;99.90;;;;;;5066922;28;20196;-80
2022/10/25 00:29:57;;;;;;;0.10;0.10;;;12.70;99.90;;;;;;5068176;28;20193;-80
2022/10/25 00:32:22;;;;;;;0.10;0.10;;;12.70;99.90;;;;;;5066890;28;20209;-80
2022/10/25 00:34:48;;;;;;;0.10;0.10;;;12.70;99.90;;;;;;5068146;28;20182;-80
2022/10/25 00:37:14;;;;;;;0.10;0.10;;;12.70;99.90;;;;;;5069162;28;20297;-80
2022/10/25 00:39:40;;;;;;;0.10;0.10;;;12.60;99.90;;;;;;5068372;28;20201;-81
2022/10/25 00:42:05;;;;;;;0.10;0.10;;;12.50;99.90;;;;;;5065306;28;20832;-80
2022/10/25 00:44:44;;;;;;;0.10;0.10;;;12.50;99.90;;;;;;5065958;28;20184;-82
2022/10/25 00:47:19;;;;;;;0.10;0.10;;;12.60;99.90;;;;;;5068255;28;20227;-80
2022/10/25 00:49:47;;;;;;;0.10;0.10;;;12.70;99.90;;;;;;5076620;28;20645;-80
2022/10/25 00:52:13;;;;;;;0.00;0.00;;;12.70;99.90;;;;;;5075672;28;20578;-80
2022/10/25 00:54:44;;;;;;;0.10;0.10;;;12.70;99.90;;;;;;5067309;28;20210;-81
2022/10/25 00:57:20;;;;;;;0.10;0.10;;;12.70;99.90;;;;;;5073854;28;20200;-80
2022/10/25 00:59:46;;;;;;;0.00;0.00;;;12.50;99.90;;;;;;5069186;28;20193;-80
2022/10/25 01:02:13;;;;;;;0.00;0.00;;;12.40;99.90;;;;;;5065303;28;20225;-80
2022/10/25 01:04:39;;;;;;;0.00;0.00;;;12.40;99.90;;;;;;5067152;28;20182;-80
2022/10/25 01:07:05;;;;;;;0.10;0.10;;;12.40;99.90;;;;;;5075899;28;20217;-80
2022/10/25 01:09:34;;;;;;;0.10;0.10;;;12.40;99.90;;;;;;5067865;28;20536;-80
2022/10/25 01:11:59;;;;;;;0.00;0.00;;;12.40;99.90;;;;;;5064042;28;20213;-81
2022/10/25 01:14:26;;;;;;;0.00;0.00;;;12.40;99.90;;;;;;5066729;28;20850;-80
2022/10/25 01:17:13;;;;;;;0.00;0.00;;;12.40;99.90;;;;;;5066085;28;20217;-80
2022/10/25 01:20:00;;;;;;;0.10;0.10;;;12.40;99.90;;;;;;5075931;28;20215;-80
2022/10/25 01:22:52;;;;;;;0.10;0.10;;;12.50;99.90;;;;;;5072970;28;20229;-80
2022/10/25 01:25:31;;;;;;;0.10;0.10;;;12.60;99.90;;;;;;5064796;28;20903;-80
2022/10/25 01:28:04;;;;;;;0.07;0.07;;;12.70;99.90;;;;;;5079398;28;20181;-81
2022/10/25 01:30:57;;;;;;;0.10;0.10;;;12.80;99.90;;;;;;5064250;28;20301;-80
2022/10/25 01:33:38;;;;;;;0.00;0.00;;;12.90;99.90;;;;;;5064286;28;20197;-80
2022/10/25 01:36:30;;;;;;;0.10;0.10;;;13.00;99.90;;;;;;5073414;28;20267;-80
2022/10/25 01:39:09;;;;;;;0.10;0.10;;;13.10;99.90;;;;;;5065647;28;20193;-80
2022/10/25 01:41:43;;;;;;;0.00;0.00;;;13.20;99.90;;;;;;5071140;28;20243;-80
2022/10/25 01:44:27;;;;;;;0.10;0.10;;;13.30;99.90;;;;;;5065293;28;20188;-79
2022/10/25 01:47:09;;;;;;;0.10;0.10;;;13.10;99.90;;;;;;5063604;28;20181;-80
2022/10/25 01:49:58;;;;;;;0.10;0.10;;;13.00;99.90;;;;;;5063304;28;20691;-80
2022/10/25 01:52:24;;;;;;;0.10;0.10;;;12.90;99.90;;;;;;5074987;28;20305;-80
2022/10/25 01:54:50;;;;;;;0.10;0.10;;;13.00;99.90;;;;;;5064694;28;20280;-81
2022/10/25 01:57:24;;;;;;;0.07;0.07;;;12.90;99.90;;;;;;5063193;28;20214;-80
2022/10/25 02:00:09;;;;;;;0.10;0.10;;;12.80;99.90;;;;;;5064608;28;20219;-80
2022/10/25 02:02:38;;;;;;;0.00;0.00;;;12.70;99.90;;;;;;5064250;28;20296;-80
2022/10/25 02:05:36;;;;;;;0.10;0.10;;;12.70;99.90;;;;;;5074941;28;20819;-80
2022/10/25 02:08:27;;;;;;;0.10;0.10;;;12.80;99.90;;;;;;5082708;28;20663;-80
2022/10/25 02:11:03;;;;;;;0.10;0.10;;;12.90;99.90;;;;;;5076303;28;20592;-80
2022/10/25 02:13:41;;;;;;;0.10;0.10;;;12.90;99.90;;;;;;5066467;28;20615;-80
2022/10/25 02:16:14;;;;;;;0.10;0.10;;;12.80;99.90;;;;;;5077563;28;20184;-81
2022/10/25 02:18:44;;;;;;;0.10;0.10;;;12.80;99.90;;;;;;5066507;28;20182;-81
2022/10/25 02:21:11;;;;;;;0.10;0.10;;;12.70;99.90;;;;;;5074079;28;20217;-80
2022/10/25 02:23:38;;;;;;;0.10;0.10;;;12.70;99.90;;;;;;5068071;28;20182;-80
2022/10/25 02:26:06;;;;;;;0.10;0.10;;;12.50;99.90;;;;;;5068373;28;20209;-81
2022/10/25 02:28:34;;;;;;;0.10;0.10;;;12.40;99.90;;;;;;5069478;28;20191;-80
2022/10/25 02:31:00;;;;;;;0.10;0.10;;;12.20;99.90;;;;;;5067781;28;20579;-80
2022/10/25 02:33:26;;;;;;;0.10;0.10;;;12.10;99.90;;;;;;5067991;28;20216;-80
2022/10/25 02:36:05;;;;;;;0.10;0.10;;;12.10;99.90;;;;;;5070499;28;20185;-81
2022/10/25 02:38:31;;;;;;;0.10;0.10;;;12.10;99.90;;;;;;5077571;28;20190;-80
2022/10/25 02:40:59;;;;;;;0.10;0.10;;;12.00;99.90;;;;;;5066245;28;20181;-80
2022/10/25 02:43:24;;;;;;;0.03;0.03;;;12.10;99.90;;;;;;5067017;28;20534;-80
2022/10/25 02:45:50;;;;;;;0.07;0.07;;;12.10;99.90;;;;;;5067995;28;20234;-81
2022/10/25 02:48:15;;;;;;;0.00;0.00;;;12.10;99.90;;;;;;5066892;28;20187;-80
2022/10/25 02:50:41;;;;;;;0.10;0.10;;;12.10;99.90;;;;;;5082232;28;20185;-81
2022/10/25 02:53:06;;;;;;;0.10;0.10;;;12.10;99.90;;;;;;5070068;28;20247;-80
2022/10/25 02:55:32;;;;;;;0.00;0.00;;;12.10;99.90;;;;;;5077792;28;20572;-81
2022/10/25 02:57:57;;;;;;;0.10;0.10;;;12.20;99.90;;;;;;5066688;28;20189;-81
2022/10/25 03:00:23;;;;;;;0.00;0.00;;;12.10;99.90;;;;;;5068722;28;20179;-80
2022/10/25 03:02:48;;;;;;;0.10;0.10;;;12.10;99.90;;;;;;5067010;28;20246;-81
2022/10/25 03:05:14;;;;;;;0.10;0.10;;;12.00;99.90;;;;;;5067916;28;20322;-80
2022/10/25 03:07:40;;;;;;;0.10;0.10;;;12.00;99.90;;;;;;5069179;28;20204;-81
2022/10/25 03:10:06;;;;;;;0.10;0.10;;;11.90;99.90;;;;;;5069916;28;20362;-81
2022/10/25 03:12:31;;;;;;;0.00;0.00;;;11.80;99.90;;;;;;5084540;28;20212;-80
2022/10/25 03:14:57;;;;;;;0.10;0.10;;;11.90;99.90;;;;;;5071697;28;20193;-80
2022/10/25 03:17:22;;;;;;;0.10;0.10;;;11.90;99.90;;;;;;5069109;28;20197;-80
2022/10/25 03:19:48;;;;;;;0.00;0.00;;;12.00;99.90;;;;;;5072114;28;20845;-80
2022/10/25 03:22:13;;;;;;;0.10;0.10;;;12.00;99.90;;;;;;5067509;28;20220;-80
2022/10/25 03:24:39;;;;;;;0.10;0.10;;;12.10;99.90;;;;;;5071784;28;20185;-81
2022/10/25 03:27:04;;;;;;;0.10;0.10;;;12.10;99.90;;;;;;5069142;28;20196;-80
2022/10/25 03:29:30;;;;;;;0.10;0.10;;;12.10;99.90;;;;;;5062963;28;20193;-80
2022/10/25 03:31:56;;;;;;;0.10;0.10;;;12.10;99.90;;;;;;5067172;28;20295;-81
2022/10/25 03:34:21;;;;;;;0.00;0.00;;;12.10;99.90;;;;;;5071429;28;20838;-81
2022/10/25 03:36:47;;;;;;;0.10;0.10;;;12.10;99.90;;;;;;5067914;28;20685;-81
2022/10/25 03:39:12;;;;;;;0.10;0.10;;;12.10;99.90;;;;;;5070701;28;20235;-81
2022/10/25 03:41:38;;;;;;;0.10;0.10;;;12.10;99.90;;;;;;5069278;28;20307;-80
2022/10/25 03:44:03;;;;;;;0.10;0.10;;;12.10;99.90;;;;;;5070777;28;20663;-81
2022/10/25 03:46:29;;;;;;;0.03;0.03;;;12.10;99.90;;;;;;5076329;28;20651;-81
2022/10/25 03:48:55;;;;;;;0.10;0.10;;;12.10;99.90;;;;;;5068915;28;20192;-80
2022/10/25 03:51:20;;;;;;;0.10;0.10;;;12.10;99.90;;;;;;5066461;28;20220;-80
2022/10/25 03:53:46;;;;;;;0.10;0.10;;;12.10;99.90;;;;;;5067137;28;20193;-81
2022/10/25 03:56:11;;;;;;;0.10;0.10;;;12.10;99.90;;;;;;5068583;28;20216;-80
2022/10/25 03:58:37;;;;;;;0.03;0.03;;;12.10;99.90;;;;;;5065807;28;20201;-80
2022/10/25 04:01:02;;;;;;;0.10;0.10;;;12.10;99.90;;;;;;5070426;28;20205;-81
2022/10/25 04:03:28;;;;;;;0.00;0.00;;;12.10;99.90;;;;;;5070110;28;20187;-81
2022/10/25 04:05:53;;;;;;;0.07;0.07;;;12.10;99.90;;;;;;5069010;28;20275;-80
2022/10/25 04:08:19;;;;;;;0.07;0.07;;;12.10;99.90;;;;;;5068624;28;21514;-81
2022/10/25 04:10:45;;;;;;;0.10;0.10;;;12.10;99.90;;;;;;5069841;28;20934;-80
2022/10/25 04:13:11;;;;;;;0.10;0.10;;;12.10;99.90;;;;;;5084488;28;20212;-80
2022/10/25 04:15:37;;;;;;;0.00;0.00;;;12.10;99.90;;;;;;5066208;28;20189;-81
2022/10/25 04:18:03;;;;;;;0.00;0.00;;;12.00;99.90;;;;;;5068387;28;20273;-80
2022/10/25 04:20:28;;;;;;;0.10;0.10;;;11.80;99.90;;;;;;5064934;28;20602;-81
2022/10/25 04:22:57;;;;;;;0.10;0.10;;;11.80;99.90;;;;;;5068561;28;20204;-81
2022/10/25 04:25:24;;;;;;;0.10;0.10;;;11.80;99.90;;;;;;5065221;28;20192;-80
2022/10/25 04:27:50;;;;;;;0.10;0.10;;;11.80;99.90;;;;;;5064957;28;20204;-80
2022/10/25 04:30:16;;;;;;;0.10;0.10;;;11.80;99.90;;;;;;5064890;28;20559;-80
2022/10/25 04:32:41;;;;;;;0.10;0.10;;;11.80;99.90;;;;;;5066628;28;20220;-81
2022/10/25 04:35:07;;;;;;;0.10;0.10;;;11.80;99.90;;;;;;5065047;28;20209;-81
2022/10/25 04:37:33;;;;;;;0.10;0.10;;;11.80;99.90;;;;;;5077261;28;20658;-81
2022/10/25 04:39:59;;;;;;;0.10;0.10;;;11.80;99.90;;;;;;5066757;28;20185;-81
2022/10/25 04:42:24;;;;;;;0.10;0.10;;;11.80;99.90;;;;;;5068016;28;20209;-80
2022/10/25 04:44:50;;;;;;;0.10;0.10;;;11.70;99.90;;;;;;5066919;28;20196;-80
2022/10/25 04:47:15;;;;;;;0.10;0.10;;;11.80;99.90;;;;;;5064615;28;20196;-81
2022/10/25 04:49:41;;;;;;;0.00;0.00;;;11.80;99.90;;;;;;5066716;28;20189;-81
2022/10/25 04:52:06;;;;;;;0.00;0.00;;;11.80;99.90;;;;;;5064284;28;20287;-82
2022/10/25 04:54:32;;;;;;;0.10;0.10;;;11.80;99.90;;;;;;5063922;28;20678;-81
2022/10/25 04:56:58;;;;;;;0.00;0.00;;;11.70;99.90;;;;;;5063873;28;20564;-80
2022/10/25 04:59:23;;;;;;;0.10;0.10;;;11.70;99.90;;;;;;5062518;28;20757;-80
2022/10/25 05:01:49;;;;;;;0.03;0.03;;;11.70;99.90;;;;;;5072103;28;20212;-80
2022/10/25 05:04:14;;;;;;;0.10;0.10;;;11.80;99.90;;;;;;5064564;28;20541;-81
2022/10/25 05:06:40;;;;;;;0.03;0.03;;;11.80;99.90;;;;;;5065987;28;20663;-80
2022/10/25 05:09:05;;;;;;;0.00;0.00;;;11.80;99.90;;;;;;5060192;28;20211;-81
2022/10/25 05:11:31;;;;;;;0.10;0.10;;;11.80;99.90;;;;;;5060328;28;20870;-80
2022/10/25 05:13:57;;;;;;;0.10;0.10;;;11.80;99.90;;;;;;5061822;28;20188;-80
2022/10/25 05:16:23;;;;;;;0.10;0.10;;;11.70;99.90;;;;;;5063544;28;20238;-81
2022/10/25 05:18:53;;;;;;;0.10;0.10;;;11.70;99.90;;;;;;5063562;28;20265;-80
2022/10/25 05:21:19;;;;;;;0.10;0.10;;;11.80;99.90;;;;;;5065261;28;20228;-81
2022/10/25 05:23:45;;;;;;;0.10;0.10;;;11.80;99.90;;;;;;5062647;28;20184;-80
2022/10/25 05:26:19;;;;;;;0.10;0.10;;;11.80;99.90;;;;;;5065942;28;20173;-81
2022/10/25 05:28:48;;;;;;;0.10;0.10;;;11.90;99.90;;;;;;5059967;28;20183;-81
2022/10/25 05:31:15;;;;;;;0.00;0.00;;;12.00;99.90;;;;;;5067967;28;20196;-81
2022/10/25 05:33:43;;;;;;;0.07;0.07;;;12.00;99.90;;;;;;5066800;28;20244;-81
2022/10/25 05:36:10;;;;;;;0.07;0.07;;;12.00;99.90;;;;;;5067042;28;20219;-81
2022/10/25 05:38:36;;;;;;;0.10;0.10;;;12.00;99.90;;;;;;5067680;28;20724;-80
2022/10/25 05:41:01;;;;;;;0.00;0.00;;;12.00;99.90;;;;;;5068556;28;20193;-81
2022/10/25 05:43:27;;;;;;;0.10;0.10;;;12.10;99.90;;;;;;5065082;28;20186;-81
2022/10/25 05:46:02;;;;;;;0.10;0.10;;;12.20;99.90;;;;;;5068832;28;20194;-81
2022/10/25 05:48:27;;;;;;;0.10;0.10;;;12.40;99.90;;;;;;5067550;28;20268;-81
2022/10/25 05:50:53;;;;;;;0.10;0.10;;;12.40;99.90;;;;;;5068909;28;20200;-80
2022/10/25 05:53:18;;;;;;;0.00;0.00;;;12.50;99.90;;;;;;5069360;28;20196;-81
2022/10/25 05:55:44;;;;;;;0.00;0.00;;;12.60;99.90;;;;;;5079332;28;20196;-80
2022/10/25 05:58:10;;;;;;;0.10;0.10;;;12.70;99.90;;;;;;5087753;28;20176;-81
2022/10/25 06:00:35;;;;;;;0.10;0.10;;;12.70;99.90;;;;;;5069176;28;20211;-80
2022/10/25 06:03:01;;;;;;;0.03;0.03;;;12.80;99.90;;;;;;5079463;28;20216;-80
2022/10/25 06:05:27;;;;;;;0.10;0.10;;;12.80;99.90;;;;;;5071959;28;20590;-80
2022/10/25 06:07:53;;;;;;;0.10;0.10;;;12.80;99.90;;;;;;5068968;28;20324;-80
2022/10/25 06:10:18;;;;;;;0.10;0.10;;;12.90;99.90;;;;;;5069582;28;20319;-80
2022/10/25 06:12:44;;;;;;;0.07;0.07;;;12.80;99.90;;;;;;5078851;28;20779;-81
2022/10/25 06:15:09;;;;;;;0.10;0.10;;;12.90;99.90;;;;;;5072238;28;21086;-80
2022/10/25 06:17:35;;;;;;;0.10;0.10;;;12.90;99.90;;;;;;5068747;28;20181;-81
2022/10/25 06:20:00;;;;;;;0.10;0.10;;;13.00;99.90;;;;;;5068801;28;20181;-80
2022/10/25 06:22:26;;;;;;;0.10;0.10;;;12.90;99.90;;;;;;5065778;28;20209;-80
2022/10/25 06:24:52;;;;;;;0.07;0.07;;;12.80;99.90;;;;;;5067274;28;20848;-81
2022/10/25 06:27:17;;;;;;;0.10;0.10;;;12.50;99.90;;;;;;5068795;28;20238;-81
2022/10/25 06:29:43;;;;;;;0.10;0.10;;;12.50;99.90;;;;;;5079587;28;20277;-80
2022/10/25 06:32:09;;;;;;;0.10;0.10;;;12.70;99.90;;;;;;5067379;28;20208;-81
2022/10/25 06:34:34;;;;;;;0.10;0.10;;;12.80;99.90;;;;;;5067619;28;20185;-80
2022/10/25 06:37:00;;;;;;;0.10;0.10;;;13.00;99.90;;;;;;5063842;28;20964;-81
2022/10/25 06:39:25;;;;;;;0.10;0.10;;;13.10;99.90;;;;;;5064368;28;20197;-80
2022/10/25 06:41:51;;;;;;;0.10;0.10;;;13.20;99.90;;;;;;5062412;28;20271;-80
2022/10/25 06:44:16;;;;;;;0.10;0.10;;;13.30;99.90;;;;;;5064948;28;20185;-81
2022/10/25 06:46:42;;;;;;;0.10;0.10;;;13.30;99.90;;;;;;5067792;28;20207;-81
2022/10/25 06:49:09;;;;;;;0.10;0.10;;;13.40;99.90;;;;;;5063072;28;20185;-81
2022/10/25 06:51:35;;;;;;;0.10;0.10;;;13.50;99.90;;;;;;5084506;28;20530;-80
2022/10/25 06:54:06;;;;;;;0.10;0.10;;;13.50;99.90;;;;;;5064609;28;20206;-80
2022/10/25 06:56:32;;;;;;;0.10;0.10;;;13.60;99.90;;;;;;5066704;28;20238;-80
2022/10/25 06:58:58;;;;;;;0.00;0.00;;;13.70;99.90;;;;;;5070705;28;20961;-80
2022/10/25 07:01:24;;;;;;;0.10;0.10;;;13.70;99.90;;;;;;5067771;28;20222;-81
2022/10/25 07:03:52;;;;;;;0.07;0.07;;;13.90;99.90;;;;;;5064510;28;20189;-80
2022/10/25 07:06:24;;;;;;;0.10;0.10;;;14.00;99.90;;;;;;5077114;28;20185;-80
2022/10/25 07:08:53;;;;;;;0.00;0.00;;;14.10;99.90;;;;;;5064724;28;20212;-80
2022/10/25 07:11:20;;;;;;;0.00;0.00;;;14.10;99.90;;;;;;5067915;28;20210;-80
2022/10/25 07:13:46;;;;;;;0.10;0.10;;;14.20;99.90;;;;;;5064679;28;20197;-80
2022/10/25 07:16:14;;;;;;;0.10;0.10;;;14.20;99.90;;;;;;5062317;28;20210;-80
2022/10/25 07:18:40;;;;;;;0.10;0.10;;;14.30;99.90;;;;;;5074755;28;20187;-80
2022/10/25 07:21:26;;;;;;;0.10;0.10;;;14.20;99.90;;;;;;5061075;28;20296;-80
2022/10/25 07:23:52;;;;;;;0.10;0.10;;;14.10;99.90;;;;;;5062295;28;20218;-80
2022/10/25 07:26:26;;;;;;;0.10;0.10;;;14.00;99.90;;;;;;5063741;28;20259;-80
2022/10/25 07:28:54;;;;;;;0.10;0.10;;;13.90;99.90;;;;;;5066435;28;20186;-80
2022/10/25 07:31:28;;;;;;;0.10;0.10;;;13.90;99.90;;;;;;5059948;28;20211;-80
2022/10/25 07:33:55;;;;;;;0.10;0.10;;;13.90;99.90;;;;;;5071457;28;20185;-80
2022/10/25 07:36:21;;;;;;;0.10;0.10;;;13.80;99.90;;;;;;5064846;28;20187;-80
2022/10/25 07:38:47;;;;;;;0.10;0.10;;;13.80;99.90;;;;;;5061891;28;20189;-80
2022/10/25 07:41:12;;;;;;;0.10;0.10;;;13.80;99.90;;;;;;5062620;28;20214;-80
2022/10/25 07:43:38;;;;;;;0.10;0.10;;;13.90;99.90;;;;;;5064343;28;20187;-80
2022/10/25 07:46:04;;;;;;;0.10;0.10;;;14.10;99.90;;;;;;5062206;28;20186;-80
2022/10/25 07:48:30;;;;;;;0.10;0.10;;;14.10;99.90;;;;;;5063245;28;20198;-81
2022/10/25 07:50:55;;;;;;;0.10;0.10;;;14.10;99.90;;;;;;5060637;28;20183;-81
2022/10/25 07:53:21;;;;;;;0.10;0.10;;;14.20;99.90;;;;;;5064666;28;20209;-81
2022/10/25 07:55:54;;;;;;;0.10;0.10;;;14.40;99.90;;;;;;5067308;28;20198;-81
2022/10/25 07:58:20;;;;;;;0.10;0.10;;;14.50;99.90;;;;;;5066939;28;20191;-80
2022/10/25 08:00:46;;;;;;;0.10;0.10;;;14.60;99.90;;;;;;5068673;28;20186;-80
2022/10/25 08:03:13;;;;;;;0.10;0.10;;;14.60;99.90;;;;;;5065520;28;20210;-82
2022/10/25 08:05:38;;;;;;;0.10;0.10;;;14.70;99.90;;;;;;5067419;28;20184;-81
2022/10/25 08:08:04;;;;;;;0.10;0.10;;;14.90;99.90;;;;;;5065244;28;20240;-81
2022/10/25 08:10:30;;;;;;;0.10;0.10;;;15.10;99.90;;;;;;5066344;28;20186;-81
2022/10/25 08:12:56;;;;;;;0.10;0.10;;;15.10;99.90;;;;;;5068718;28;20231;-81
2022/10/25 08:15:22;;;;;;;0.10;0.10;;;15.20;99.90;;;;;;5067508;28;20697;-81
2022/10/25 08:17:55;;;;;;;0.10;0.10;;;15.30;99.90;;;;;;5069271;28;20192;-81
2022/10/25 08:20:21;;;;;;;0.00;0.00;;;15.30;99.90;;;;;;5065857;28;20251;-81
2022/10/25 08:22:46;;;;;;;0.10;0.10;;;15.30;99.90;;;;;;5063936;28;20290;-81
2022/10/25 08:25:12;;;;;;;0.10;0.10;;;15.40;99.90;;;;;;5067148;28;20602;-81
2022/10/25 08:27:40;;;;;;;0.10;0.10;;;15.60;99.90;;;;;;5067653;28;20180;-81
2022/10/25 08:30:06;;;;;;;0.10;0.10;;;15.70;99.90;;;;;;5068332;28;20177;-81
2022/10/25 08:32:33;;;;;;;0.10;0.10;;;15.70;99.90;;;;;;5067498;28;20716;-81
2022/10/25 08:34:58;;;;;;;0.10;0.10;;;15.70;99.90;;;;;;5067754;28;20195;-81
2022/10/25 08:37:24;;;;;;;0.10;0.10;;;15.80;99.90;;;;;;5068235;28;20184;-81
2022/10/25 08:39:49;;;;;;;0.10;0.10;;;15.80;99.90;;;;;;5066203;28;20190;-81
2022/10/25 08:42:23;;;;;;;0.10;0.10;;;15.90;99.90;;;;;;5067740;28;20211;-81
2022/10/25 08:45:00;;;;;;;0.10;0.10;;;16.00;99.90;;;;;;5068339;28;20263;-81
2022/10/25 08:47:43;;;;;;;0.10;0.10;;;16.10;99.90;;;;;;5065822;28;20261;-81
2022/10/25 08:50:25;;;;;;;0.10;0.10;;;16.20;99.90;;;;;;5067581;28;20696;-80
2022/10/25 08:53:00;;;;;;;0.10;0.10;;;16.30;99.90;;;;;;5064822;28;20247;-81
2022/10/25 08:55:33;;;;;;;0.10;0.10;;;16.30;99.90;;;;;;5066483;28;20187;-81
2022/10/25 08:58:03;;;;;;;0.10;0.10;;;16.40;99.90;;;;;;5064854;28;20181;-80
2022/10/25 09:00:36;;;;;;;0.10;0.10;;;16.50;99.90;;;;;;5067354;28;20684;-81
2022/10/25 09:03:03;;;;;;;0.10;0.10;;;16.60;99.90;;;;;;5064002;28;20619;-81
2022/10/25 09:05:55;;;;;;;0.10;0.10;;;16.60;99.90;;;;;;5067713;28;20600;-81
2022/10/25 09:08:56;;;;;;;0.10;0.10;;;16.70;99.90;;;;;;5065563;28;20177;-81
2022/10/25 09:11:49;;;;;;;0.10;0.10;;;16.70;99.90;;;;;;5066397;28;20303;-81
2022/10/25 09:14:39;;;;;;;0.10;0.10;;;16.70;99.90;;;;;;5073284;28;20223;-81
2022/10/25 09:17:23;;;;;;;0.10;0.10;;;16.90;99.90;;;;;;5067758;28;20173;-81
2022/10/25 09:20:04;;;;;;;0.10;0.10;;;17.00;99.90;;;;;;5081764;28;20184;-81
2022/10/25 09:22:45;;;;;;;0.10;0.10;;;17.20;99.90;;;;;;5077789;28;20261;-81
2022/10/25 09:25:39;;;;;;;0.10;0.10;;;17.10;99.90;;;;;;5063830;28;20173;-81
2022/10/25 09:28:15;;;;;;;0.10;0.10;;;17.20;99.90;;;;;;5069615;28;20178;-82
2022/10/25 09:30:43;;;;;;;0.10;0.10;;;17.10;99.90;;;;;;5064053;28;20236;-81
2022/10/25 09:33:15;;;;;;;0.10;0.10;;;17.00;99.90;;;;;;5063857;28;20751;-80
2022/10/25 09:35:42;;;;;;;0.10;0.10;;;17.00;99.90;;;;;;5062222;28;20180;-82
2022/10/25 09:38:23;;;;;;;0.10;0.10;;;17.10;99.90;;;;;;5061271;28;20188;-80
2022/10/25 09:40:55;;;;;;;0.10;0.10;;;17.20;99.90;;;;;;5059416;28;20177;-81
2022/10/25 09:43:28;;;;;;;0.10;0.10;;;17.30;99.90;;;;;;5057522;28;20197;-81
2022/10/25 09:45:59;;;;;;;0.10;0.10;;;17.30;99.90;;;;;;5060065;28;20209;-81
2022/10/25 09:48:31;;;;;;;0.10;0.10;;;17.30;99.90;;;;;;5059396;28;20655;-81
2022/10/25 09:51:28;;;;;;;0.10;0.10;;;17.30;99.90;;;;;;5059259;28;20562;-81
2022/10/25 09:53:54;;;;;;;0.10;0.10;;;17.30;99.90;;;;;;5059078;28;20187;-81
2022/10/25 09:56:20;;;;;;;0.10;0.10;;;17.20;99.90;;;;;;5058209;28;20663;-82
2022/10/25 09:58:46;;;;;;;0.10;0.10;;;17.10;99.90;;;;;;5060135;28;20223;-81
2022/10/25 10:01:25;;;;;;;0.10;0.10;;;17.20;99.90;;;;;;5058233;28;20205;-81
2022/10/25 10:03:51;;;;;;;0.10;0.10;;;17.10;99.90;;;;;;5060550;28;20211;-81
2022/10/25 10:06:25;;;;;;;0.10;0.10;;;17.20;99.90;;;;;;5069792;28;20185;-80
2022/10/25 10:08:59;;;;;;;0.10;0.10;;;17.30;99.90;;;;;;5061129;28;20184;-80
2022/10/25 10:11:25;;;;;;;0.10;0.10;;;17.60;99.90;;;;;;5070556;28;20200;-81
2022/10/25 10:13:53;;;;;;;0.10;0.10;;;17.50;99.90;;;;;;5059361;28;20187;-81
2022/10/25 10:16:30;;;;;;;0.10;0.10;;;17.40;99.90;;;;;;5063084;28;20185;-79
2022/10/25 10:19:20;;;;;;;0.10;0.10;;;17.50;99.90;;;;;;5059866;28;20184;-80
2022/10/25 10:21:53;;;;;;;0.10;0.10;;;17.50;99.90;;;;;;5054582;28;20232;-80
2022/10/25 10:24:26;;;;;;;0.10;0.10;;;17.50;99.90;;;;;;5059783;28;20177;-80
2022/10/25 10:26:56;;;;;;;0.10;0.10;;;17.60;99.90;;;;;;5063996;28;20209;-80
2022/10/25 10:29:36;;;;;;;0.10;0.10;;;17.70;99.90;;;;;;5059920;28;20284;-79
2022/10/25 10:32:23;;;;;;;0.10;0.10;;;17.80;99.90;;;;;;5061863;28;20212;-79
2022/10/25 10:34:54;;;;;;;0.10;0.10;;;17.80;99.90;;;;;;5073152;28;20734;-79
2022/10/25 10:37:25;;;;;;;0.10;0.10;;;17.80;99.90;;;;;;5065087;28;20234;-79
2022/10/25 10:39:58;;;;;;;0.10;0.10;;;17.70;99.90;;;;;;5063811;28;20181;-80
2022/10/25 10:42:33;;;;;;;0.10;0.10;;;17.80;99.90;;;;;;5073119;28;20220;-80
2022/10/25 10:45:08;;;;;;;0.10;0.10;;;17.90;99.90;;;;;;5073895;28;20188;-79
2022/10/25 10:47:35;;;;;;;0.10;0.10;;;17.80;99.90;;;;;;5074625;28;20190;-80
2022/10/25 10:50:09;;;;;;;0.10;0.10;;;18.10;99.90;;;;;;5075167;28;20188;-80
2022/10/25 10:52:41;;;;;;;0.10;0.10;;;18.30;99.90;;;;;;5064450;28;20231;-80
2022/10/25 10:55:25;;;;;;;0.10;0.10;;;18.30;99.90;;;;;;5064652;28;20195;-79
2022/10/25 10:57:55;;;;;;;0.10;0.10;;;18.50;99.90;;;;;;5069553;28;20181;-79
2022/10/25 11:00:24;;;;;;;0.10;0.10;;;18.90;99.90;;;;;;5065213;28;20216;-79
2022/10/25 11:02:50;;;;;;;0.10;0.10;;;19.20;99.90;;;;;;5063524;28;20217;-79
2022/10/25 11:05:31;;;;;;;0.10;0.10;;;19.50;99.90;;;;;;5061747;28;20315;-80
2022/10/25 11:08:22;;;;;;;0.10;0.10;;;19.40;99.90;;;;;;5072070;28;20199;-79
2022/10/25 11:10:48;;;;;;;0.10;0.10;;;19.30;99.90;;;;;;5055654;28;20256;-79
2022/10/25 11:13:18;;;;;;;0.10;0.10;;;19.00;99.90;;;;;;5058760;28;20353;-79
2022/10/25 11:16:06;;;;;;;0.10;0.10;;;18.90;99.90;;;;;;5062402;28;20214;-80
2022/10/25 11:18:49;;;;;;;0.10;0.10;;;19.00;99.90;;;;;;5071726;28;20212;-80
2022/10/25 11:21:48;;;;;;;0.10;0.10;;;18.90;99.90;;;;;;5062513;28;20259;-80
2022/10/25 11:24:27;;;;;;;0.10;0.10;;;19.20;99.90;;;;;;5065623;28;20185;-79
2022/10/25 11:27:34;;;;;;;0.10;0.10;;;19.10;99.90;;;;;;5062841;28;20180;-80
2022/10/25 11:30:06;;;;;;;0.10;0.10;;;19.30;99.90;;;;;;5062283;28;20604;-80
2022/10/25 11:33:05;;;;;;;0.10;0.10;;;19.30;99.90;;;;;;5071290;28;20243;-79
2022/10/25 11:35:48;;;;;;;0.10;0.10;;;19.40;99.90;;;;;;5061172;28;20260;-80
2022/10/25 11:38:29;;;;;;;0.10;0.10;;;19.30;99.90;;;;;;5077709;28;20224;-79
2022/10/25 11:41:24;;;;;;;0.10;0.10;;;19.30;99.90;;;;;;5064367;28;20608;-79
2022/10/25 11:44:27;;;;;;;0.10;0.10;;;19.20;99.90;;;;;;5059024;28;20196;-79
2022/10/25 11:47:14;;;;;;;0.10;0.10;;;19.10;99.90;;;;;;5071543;28;20219;-79
2022/10/25 11:49:55;;;;;;;0.10;0.10;;;19.00;99.90;;;;;;5072684;28;20192;-79
2022/10/25 11:52:31;;;;;;;0.10;0.10;;;18.80;99.90;;;;;;5062405;28;20268;-80
2022/10/25 11:55:16;;;;;;;0.00;0.00;;;18.70;99.90;;;;;;5073130;28;20276;-80
2022/10/25 11:58:03;;;;;;;0.10;0.10;;;18.80;99.90;;;;;;5073118;28;20181;-79
2022/10/25 12:00:58;;;;;;;0.10;0.10;;;18.80;99.90;;;;;;5073281;28;20181;-79
2022/10/25 12:03:36;;;;;;;0.10;0.10;;;18.90;99.90;;;;;;5063623;28;20206;-79
2022/10/25 12:06:07;;;;;;;0.10;0.10;;;19.30;99.90;;;;;;5072919;28;20192;-79
2022/10/25 12:08:46;;;;;;;0.10;0.10;;;19.20;99.90;;;;;;5072462;28;20191;-79
2022/10/25 12:11:39;;;;;;;0.10;0.10;;;19.20;99.90;;;;;;5071870;28;20184;-79
2022/10/25 12:14:09;;;;;;;0.10;0.10;;;19.10;99.90;;;;;;5065090;28;20744;-80
2022/10/25 12:16:35;;;;;;;0.10;0.10;;;19.10;99.90;;;;;;5062484;28;20179;-79
2022/10/25 12:19:15;;;;;;;0.10;0.10;;;19.00;99.90;;;;;;5063985;28;20200;-79
2022/10/25 12:21:48;;;;;;;0.10;0.10;;;19.00;99.90;;;;;;5073508;28;20232;-79
2022/10/25 12:24:21;;;;;;;0.10;0.10;;;19.10;99.90;;;;;;5061731;28;20185;-79
2022/10/25 12:26:50;;;;;;;0.10;0.10;;;19.50;99.90;;;;;;5061304;28;20263;-79
2022/10/25 12:29:25;;;;;;;0.10;0.10;;;19.70;99.90;;;;;;5061171;28;20554;-81
2022/10/25 12:31:56;;;;;;;0.10;0.10;;;19.80;99.90;;;;;;5071159;28;20200;-79
2022/10/25 12:34:43;;;;;;;0.10;0.10;;;19.70;99.90;;;;;;5070421;28;20188;-80
2022/10/25 12:37:48;;;;;;;0.30;0.30;;;19.80;99.90;;;;;;5061028;28;20181;-80
2022/10/25 12:40:20;;;;;;;0.10;0.10;;;19.90;99.90;;;;;;5062954;28;20184;-80
2022/10/25 12:42:48;;;;;;;0.10;0.10;;;19.50;99.90;;;;;;5061166;28;20207;-80
2022/10/25 12:45:44;;;;;;;0.10;0.10;;;19.40;99.90;;;;;;5059019;28;20265;-80
2022/10/25 12:48:56;;;;;;;0.10;0.10;;;19.80;99.90;;;;;;5071167;28;20175;-80
2022/10/25 12:51:25;;;;;;;0.10;0.10;;;20.10;99.90;;;;;;5062108;28;20687;-80
2022/10/25 12:54:14;;;;;;;0.10;0.10;;;20.10;99.90;;;;;;5070404;28;20367;-81
2022/10/25 12:57:13;;;;;;;0.10;0.10;;;20.00;99.90;;;;;;5061257;28;20218;-80
2022/10/25 12:59:49;;;;;;;0.10;0.10;;;20.10;99.90;;;;;;5057448;28;20196;-80
2022/10/25 13:02:42;;;;;;;0.10;0.10;;;20.30;99.90;;;;;;5076053;28;20215;-80
2022/10/25 13:05:31;;;;;;;0.10;0.10;;;20.10;99.90;;;;;;5060455;28;20263;-80
2022/10/25 13:08:01;;;;;;;0.10;0.10;;;20.00;99.90;;;;;;5069459;28;20185;-80
2022/10/25 13:10:32;;;;;;;0.10;0.10;;;19.80;99.90;;;;;;5060747;28;20221;-80